sensor_id;sensor_type;location;lat;lon;timestamp;temperature;humidity
63017;DHT22;50274;45.640;11.756;2024-01-07T00:00:27;8.60;86.60
63017;DHT22;50274;45.640;11.756;2024-01-07T00:02:53;8.60;86.60
63017;DHT22;50274;45.640;11.756;2024-01-07T00:05:19;8.50;86.60
63017;DHT22;50274;45.640;11.756;2024-01-07T00:07:45;8.50;86.60
63017;DHT22;50274;45.640;11.756;2024-01-07T00:10:11;8.50;86.70
63017;DHT22;50274;45.640;11.756;2024-01-07T00:12:37;8.60;86.70
63017;DHT22;50274;45.640;11.756;2024-01-07T00:15:02;8.50;86.60
63017;DHT22;50274;45.640;11.756;2024-01-07T00:17:28;8.60;86.70
63017;DHT22;50274;45.640;11.756;2024-01-07T00:19:54;8.50;86.70
63017;DHT22;50274;45.640;11.756;2024-01-07T00:22:20;8.60;86.70
63017;DHT22;50274;45.640;11.756;2024-01-07T00:24:46;8.50;86.70
63017;DHT22;50274;45.640;11.756;2024-01-07T00:27:11;8.50;86.70
63017;DHT22;50274;45.640;11.756;2024-01-07T00:29:37;8.50;86.70
63017;DHT22;50274;45.640;11.756;2024-01-07T00:32:03;8.50;86.70
63017;DHT22;50274;45.640;11.756;2024-01-07T00:34:29;8.50;86.70
63017;DHT22;50274;45.640;11.756;2024-01-07T00:36:55;8.50;86.70
63017;DHT22;50274;45.640;11.756;2024-01-07T00:39:21;8.50;86.40
63017;DHT22;50274;45.640;11.756;2024-01-07T00:41:47;8.50;86.50
63017;DHT22;50274;45.640;11.756;2024-01-07T00:44:13;8.40;86.30
63017;DHT22;50274;45.640;11.756;2024-01-07T00:46:38;8.50;86.30
63017;DHT22;50274;45.640;11.756;2024-01-07T00:49:04;8.50;86.30
63017;DHT22;50274;45.640;11.756;2024-01-07T00:51:30;8.50;86.30
63017;DHT22;50274;45.640;11.756;2024-01-07T00:53:56;8.50;86.20
63017;DHT22;50274;45.640;11.756;2024-01-07T00:56:25;8.50;86.20
63017;DHT22;50274;45.640;11.756;2024-01-07T00:58:50;8.50;86.20
63017;DHT22;50274;45.640;11.756;2024-01-07T01:01:16;8.50;86.20
63017;DHT22;50274;45.640;11.756;2024-01-07T01:03:42;8.50;86.20
63017;DHT22;50274;45.640;11.756;2024-01-07T01:06:08;8.50;86.20
63017;DHT22;50274;45.640;11.756;2024-01-07T01:08:33;8.50;86.20
63017;DHT22;50274;45.640;11.756;2024-01-07T01:10:59;8.40;86.20
63017;DHT22;50274;45.640;11.756;2024-01-07T01:13:25;8.50;86.20
63017;DHT22;50274;45.640;11.756;2024-01-07T01:15:51;8.50;86.20
63017;DHT22;50274;45.640;11.756;2024-01-07T01:18:17;8.50;86.20
63017;DHT22;50274;45.640;11.756;2024-01-07T01:20:43;8.50;86.20
63017;DHT22;50274;45.640;11.756;2024-01-07T01:23:09;8.40;86.20
63017;DHT22;50274;45.640;11.756;2024-01-07T01:25:35;8.50;86.30
63017;DHT22;50274;45.640;11.756;2024-01-07T01:28:01;8.50;86.30
63017;DHT22;50274;45.640;11.756;2024-01-07T01:30:27;8.50;86.10
63017;DHT22;50274;45.640;11.756;2024-01-07T01:32:56;8.40;86.10
63017;DHT22;50274;45.640;11.756;2024-01-07T01:35:22;8.50;86.20
63017;DHT22;50274;45.640;11.756;2024-01-07T01:37:47;8.50;86.20
63017;DHT22;50274;45.640;11.756;2024-01-07T01:40:13;8.40;86.20
63017;DHT22;50274;45.640;11.756;2024-01-07T01:42:43;8.50;86.20
63017;DHT22;50274;45.640;11.756;2024-01-07T01:45:09;8.50;86.20
63017;DHT22;50274;45.640;11.756;2024-01-07T01:47:35;8.40;86.20
63017;DHT22;50274;45.640;11.756;2024-01-07T01:50:01;8.40;86.30
63017;DHT22;50274;45.640;11.756;2024-01-07T01:52:27;8.40;86.40
63017;DHT22;50274;45.640;11.756;2024-01-07T01:54:53;8.40;86.40
63017;DHT22;50274;45.640;11.756;2024-01-07T01:57:21;8.50;86.40
63017;DHT22;50274;45.640;11.756;2024-01-07T01:59:48;8.40;86.40
63017;DHT22;50274;45.640;11.756;2024-01-07T02:02:14;8.40;86.40
63017;DHT22;50274;45.640;11.756;2024-01-07T02:04:40;8.40;86.40
63017;DHT22;50274;45.640;11.756;2024-01-07T02:07:06;8.40;86.40
63017;DHT22;50274;45.640;11.756;2024-01-07T02:09:32;8.50;86.40
63017;DHT22;50274;45.640;11.756;2024-01-07T02:12:05;8.40;86.40
63017;DHT22;50274;45.640;11.756;2024-01-07T02:14:31;8.40;86.50
63017;DHT22;50274;45.640;11.756;2024-01-07T02:16:57;8.40;86.50
63017;DHT22;50274;45.640;11.756;2024-01-07T02:19:23;8.40;86.40
63017;DHT22;50274;45.640;11.756;2024-01-07T02:21:52;8.40;86.50
63017;DHT22;50274;45.640;11.756;2024-01-07T02:24:18;8.40;86.40
63017;DHT22;50274;45.640;11.756;2024-01-07T02:26:44;8.40;86.50
63017;DHT22;50274;45.640;11.756;2024-01-07T02:29:10;8.40;86.50
63017;DHT22;50274;45.640;11.756;2024-01-07T02:31:36;8.40;86.50
63017;DHT22;50274;45.640;11.756;2024-01-07T02:34:02;8.30;86.60
63017;DHT22;50274;45.640;11.756;2024-01-07T02:36:28;8.30;86.60
63017;DHT22;50274;45.640;11.756;2024-01-07T02:38:53;8.30;86.60
63017;DHT22;50274;45.640;11.756;2024-01-07T02:41:19;8.40;86.60
63017;DHT22;50274;45.640;11.756;2024-01-07T02:43:46;8.30;86.60
63017;DHT22;50274;45.640;11.756;2024-01-07T02:46:14;8.30;86.60
63017;DHT22;50274;45.640;11.756;2024-01-07T02:48:40;8.30;86.60
63017;DHT22;50274;45.640;11.756;2024-01-07T02:51:07;8.30;86.60
63017;DHT22;50274;45.640;11.756;2024-01-07T02:53:33;8.30;86.70
63017;DHT22;50274;45.640;11.756;2024-01-07T02:55:59;8.30;86.70
63017;DHT22;50274;45.640;11.756;2024-01-07T02:58:25;8.30;86.70
63017;DHT22;50274;45.640;11.756;2024-01-07T03:00:51;8.30;86.70
63017;DHT22;50274;45.640;11.756;2024-01-07T03:03:17;8.30;86.70
63017;DHT22;50274;45.640;11.756;2024-01-07T03:05:43;8.30;86.70
63017;DHT22;50274;45.640;11.756;2024-01-07T03:08:09;8.30;86.70
63017;DHT22;50274;45.640;11.756;2024-01-07T03:10:35;8.30;86.70
63017;DHT22;50274;45.640;11.756;2024-01-07T03:13:01;8.30;86.70
63017;DHT22;50274;45.640;11.756;2024-01-07T03:15:27;8.30;86.80
63017;DHT22;50274;45.640;11.756;2024-01-07T03:17:52;8.30;86.80
63017;DHT22;50274;45.640;11.756;2024-01-07T03:20:18;8.40;86.80
63017;DHT22;50274;45.640;11.756;2024-01-07T03:22:44;8.30;86.80
63017;DHT22;50274;45.640;11.756;2024-01-07T03:25:10;8.40;86.80
63017;DHT22;50274;45.640;11.756;2024-01-07T03:27:35;8.30;86.80
63017;DHT22;50274;45.640;11.756;2024-01-07T03:30:02;8.30;86.90
63017;DHT22;50274;45.640;11.756;2024-01-07T03:32:28;8.30;86.90
63017;DHT22;50274;45.640;11.756;2024-01-07T03:34:54;8.40;86.90
63017;DHT22;50274;45.640;11.756;2024-01-07T03:37:19;8.40;86.90
63017;DHT22;50274;45.640;11.756;2024-01-07T03:39:47;8.30;86.90
63017;DHT22;50274;45.640;11.756;2024-01-07T03:42:13;8.30;87.00
63017;DHT22;50274;45.640;11.756;2024-01-07T03:44:39;8.40;86.90
63017;DHT22;50274;45.640;11.756;2024-01-07T03:47:06;8.30;86.90
63017;DHT22;50274;45.640;11.756;2024-01-07T03:49:32;8.30;86.90
63017;DHT22;50274;45.640;11.756;2024-01-07T03:51:57;8.30;86.90
63017;DHT22;50274;45.640;11.756;2024-01-07T03:54:23;8.30;86.90
63017;DHT22;50274;45.640;11.756;2024-01-07T03:56:49;8.30;87.00
63017;DHT22;50274;45.640;11.756;2024-01-07T03:59:15;8.30;87.00
63017;DHT22;50274;45.640;11.756;2024-01-07T04:01:41;8.30;87.00
63017;DHT22;50274;45.640;11.756;2024-01-07T04:04:06;8.30;87.00
63017;DHT22;50274;45.640;11.756;2024-01-07T04:06:32;8.30;87.00
63017;DHT22;50274;45.640;11.756;2024-01-07T04:08:58;8.30;87.00
63017;DHT22;50274;45.640;11.756;2024-01-07T04:11:24;8.30;87.10
63017;DHT22;50274;45.640;11.756;2024-01-07T04:13:50;8.30;87.10
63017;DHT22;50274;45.640;11.756;2024-01-07T04:16:19;8.30;87.10
63017;DHT22;50274;45.640;11.756;2024-01-07T04:18:46;8.30;87.10
63017;DHT22;50274;45.640;11.756;2024-01-07T04:21:12;8.30;87.00
63017;DHT22;50274;45.640;11.756;2024-01-07T04:23:39;8.30;87.00
63017;DHT22;50274;45.640;11.756;2024-01-07T04:26:09;8.30;87.10
63017;DHT22;50274;45.640;11.756;2024-01-07T04:28:35;8.30;87.10
63017;DHT22;50274;45.640;11.756;2024-01-07T04:31:01;8.30;87.10
63017;DHT22;50274;45.640;11.756;2024-01-07T04:33:27;8.30;87.00
63017;DHT22;50274;45.640;11.756;2024-01-07T04:35:52;8.30;87.00
63017;DHT22;50274;45.640;11.756;2024-01-07T04:38:23;8.30;87.00
63017;DHT22;50274;45.640;11.756;2024-01-07T04:40:50;8.30;87.00
63017;DHT22;50274;45.640;11.756;2024-01-07T04:43:16;8.30;87.00
63017;DHT22;50274;45.640;11.756;2024-01-07T04:45:42;8.30;87.00
63017;DHT22;50274;45.640;11.756;2024-01-07T04:48:08;8.30;87.00
63017;DHT22;50274;45.640;11.756;2024-01-07T04:50:34;8.30;86.90
63017;DHT22;50274;45.640;11.756;2024-01-07T04:53:00;8.40;86.90
63017;DHT22;50274;45.640;11.756;2024-01-07T04:55:25;8.30;86.90
63017;DHT22;50274;45.640;11.756;2024-01-07T04:57:51;8.40;86.90
63017;DHT22;50274;45.640;11.756;2024-01-07T05:00:17;8.30;86.90
63017;DHT22;50274;45.640;11.756;2024-01-07T05:02:43;8.40;86.90
63017;DHT22;50274;45.640;11.756;2024-01-07T05:05:09;8.40;86.90
63017;DHT22;50274;45.640;11.756;2024-01-07T05:07:35;8.40;86.90
63017;DHT22;50274;45.640;11.756;2024-01-07T05:10:01;8.30;86.90
63017;DHT22;50274;45.640;11.756;2024-01-07T05:12:26;8.30;86.90
63017;DHT22;50274;45.640;11.756;2024-01-07T05:14:52;8.30;86.90
63017;DHT22;50274;45.640;11.756;2024-01-07T05:17:18;8.40;86.90
63017;DHT22;50274;45.640;11.756;2024-01-07T05:19:44;8.40;86.80
63017;DHT22;50274;45.640;11.756;2024-01-07T05:22:10;8.40;86.80
63017;DHT22;50274;45.640;11.756;2024-01-07T05:24:38;8.40;86.80
63017;DHT22;50274;45.640;11.756;2024-01-07T05:27:04;8.40;86.80
63017;DHT22;50274;45.640;11.756;2024-01-07T05:29:31;8.40;86.80
63017;DHT22;50274;45.640;11.756;2024-01-07T05:31:59;8.40;86.80
63017;DHT22;50274;45.640;11.756;2024-01-07T05:34:28;8.40;86.80
63017;DHT22;50274;45.640;11.756;2024-01-07T05:36:54;8.40;86.80
63017;DHT22;50274;45.640;11.756;2024-01-07T05:39:20;8.40;86.80
63017;DHT22;50274;45.640;11.756;2024-01-07T05:41:47;8.40;86.80
63017;DHT22;50274;45.640;11.756;2024-01-07T05:44:13;8.40;86.70
63017;DHT22;50274;45.640;11.756;2024-01-07T05:46:39;8.30;86.80
63017;DHT22;50274;45.640;11.756;2024-01-07T05:49:05;8.30;86.70
63017;DHT22;50274;45.640;11.756;2024-01-07T05:51:31;8.40;86.70
63017;DHT22;50274;45.640;11.756;2024-01-07T05:53:57;8.40;86.70
63017;DHT22;50274;45.640;11.756;2024-01-07T05:56:23;8.30;86.70
63017;DHT22;50274;45.640;11.756;2024-01-07T05:58:49;8.30;86.60
63017;DHT22;50274;45.640;11.756;2024-01-07T06:01:21;8.30;86.40
63017;DHT22;50274;45.640;11.756;2024-01-07T06:03:47;8.30;86.40
63017;DHT22;50274;45.640;11.756;2024-01-07T06:06:14;8.30;86.30
63017;DHT22;50274;45.640;11.756;2024-01-07T06:08:43;8.30;86.40
63017;DHT22;50274;45.640;11.756;2024-01-07T06:11:09;8.20;86.40
63017;DHT22;50274;45.640;11.756;2024-01-07T06:13:36;8.20;86.40
63017;DHT22;50274;45.640;11.756;2024-01-07T06:16:02;8.20;86.40
63017;DHT22;50274;45.640;11.756;2024-01-07T06:18:28;8.20;86.30
63017;DHT22;50274;45.640;11.756;2024-01-07T06:20:54;8.20;86.40
63017;DHT22;50274;45.640;11.756;2024-01-07T06:23:19;8.20;86.40
63017;DHT22;50274;45.640;11.756;2024-01-07T06:25:45;8.20;86.30
63017;DHT22;50274;45.640;11.756;2024-01-07T06:28:11;8.20;86.30
63017;DHT22;50274;45.640;11.756;2024-01-07T06:30:37;8.30;86.20
63017;DHT22;50274;45.640;11.756;2024-01-07T06:33:03;8.20;86.10
63017;DHT22;50274;45.640;11.756;2024-01-07T06:35:29;8.20;86.10
63017;DHT22;50274;45.640;11.756;2024-01-07T06:37:56;8.20;86.00
63017;DHT22;50274;45.640;11.756;2024-01-07T06:40:22;8.20;85.90
63017;DHT22;50274;45.640;11.756;2024-01-07T06:42:48;8.20;85.90
63017;DHT22;50274;45.640;11.756;2024-01-07T06:45:16;8.20;85.90
63017;DHT22;50274;45.640;11.756;2024-01-07T06:47:42;8.20;85.80
63017;DHT22;50274;45.640;11.756;2024-01-07T06:50:09;8.20;85.70
63017;DHT22;50274;45.640;11.756;2024-01-07T06:52:35;8.20;85.60
63017;DHT22;50274;45.640;11.756;2024-01-07T06:55:01;8.10;85.60
63017;DHT22;50274;45.640;11.756;2024-01-07T06:57:27;8.10;85.60
63017;DHT22;50274;45.640;11.756;2024-01-07T06:59:53;8.10;85.60
63017;DHT22;50274;45.640;11.756;2024-01-07T07:02:20;8.10;85.60
63017;DHT22;50274;45.640;11.756;2024-01-07T07:04:47;8.10;85.40
63017;DHT22;50274;45.640;11.756;2024-01-07T07:07:13;8.10;85.60
63017;DHT22;50274;45.640;11.756;2024-01-07T07:09:39;8.10;85.60
63017;DHT22;50274;45.640;11.756;2024-01-07T07:12:05;8.10;85.70
63017;DHT22;50274;45.640;11.756;2024-01-07T07:14:33;8.10;85.70
63017;DHT22;50274;45.640;11.756;2024-01-07T07:16:59;8.10;85.80
63017;DHT22;50274;45.640;11.756;2024-01-07T07:19:24;8.10;85.80
63017;DHT22;50274;45.640;11.756;2024-01-07T07:21:50;8.10;85.80
63017;DHT22;50274;45.640;11.756;2024-01-07T07:24:16;8.10;85.90
63017;DHT22;50274;45.640;11.756;2024-01-07T07:26:42;8.10;85.90
63017;DHT22;50274;45.640;11.756;2024-01-07T07:29:11;8.10;85.80
63017;DHT22;50274;45.640;11.756;2024-01-07T07:31:37;8.10;85.90
63017;DHT22;50274;45.640;11.756;2024-01-07T07:34:08;8.10;85.90
63017;DHT22;50274;45.640;11.756;2024-01-07T07:36:34;8.10;85.90
63017;DHT22;50274;45.640;11.756;2024-01-07T07:39:00;8.10;85.90
63017;DHT22;50274;45.640;11.756;2024-01-07T07:41:26;8.10;85.90
63017;DHT22;50274;45.640;11.756;2024-01-07T07:43:52;8.10;85.90
63017;DHT22;50274;45.640;11.756;2024-01-07T07:46:18;8.10;85.90
63017;DHT22;50274;45.640;11.756;2024-01-07T07:48:43;8.10;85.90
63017;DHT22;50274;45.640;11.756;2024-01-07T07:51:09;8.10;85.90
63017;DHT22;50274;45.640;11.756;2024-01-07T07:53:38;8.10;86.00
63017;DHT22;50274;45.640;11.756;2024-01-07T07:56:06;8.10;86.00
63017;DHT22;50274;45.640;11.756;2024-01-07T07:58:32;8.10;85.90
63017;DHT22;50274;45.640;11.756;2024-01-07T08:00:57;8.10;85.90
63017;DHT22;50274;45.640;11.756;2024-01-07T08:03:23;8.10;85.90
63017;DHT22;50274;45.640;11.756;2024-01-07T08:05:49;8.10;86.00
63017;DHT22;50274;45.640;11.756;2024-01-07T08:08:15;8.10;86.00
63017;DHT22;50274;45.640;11.756;2024-01-07T08:10:42;8.10;86.00
63017;DHT22;50274;45.640;11.756;2024-01-07T08:13:08;8.10;86.10
63017;DHT22;50274;45.640;11.756;2024-01-07T08:15:35;8.10;86.10
63017;DHT22;50274;45.640;11.756;2024-01-07T08:18:01;8.10;86.10
63017;DHT22;50274;45.640;11.756;2024-01-07T08:20:28;8.10;86.20
63017;DHT22;50274;45.640;11.756;2024-01-07T08:22:54;8.10;86.20
63017;DHT22;50274;45.640;11.756;2024-01-07T08:25:20;8.20;86.20
63017;DHT22;50274;45.640;11.756;2024-01-07T08:27:46;8.10;86.20
63017;DHT22;50274;45.640;11.756;2024-01-07T08:30:13;8.10;86.20
63017;DHT22;50274;45.640;11.756;2024-01-07T08:32:48;8.10;86.30
63017;DHT22;50274;45.640;11.756;2024-01-07T08:35:14;8.10;86.30
63017;DHT22;50274;45.640;11.756;2024-01-07T08:37:40;8.20;86.30
63017;DHT22;50274;45.640;11.756;2024-01-07T08:40:06;8.20;86.30
63017;DHT22;50274;45.640;11.756;2024-01-07T08:42:35;8.20;86.40
63017;DHT22;50274;45.640;11.756;2024-01-07T08:45:01;8.20;86.40
63017;DHT22;50274;45.640;11.756;2024-01-07T08:47:29;8.20;86.30
63017;DHT22;50274;45.640;11.756;2024-01-07T08:49:57;8.20;86.30
63017;DHT22;50274;45.640;11.756;2024-01-07T08:52:23;8.20;86.40
63017;DHT22;50274;45.640;11.756;2024-01-07T08:54:49;8.20;86.40
63017;DHT22;50274;45.640;11.756;2024-01-07T08:57:15;8.30;86.40
63017;DHT22;50274;45.640;11.756;2024-01-07T08:59:41;8.30;86.40
63017;DHT22;50274;45.640;11.756;2024-01-07T09:02:07;8.20;86.50
63017;DHT22;50274;45.640;11.756;2024-01-07T09:04:33;8.20;86.40
63017;DHT22;50274;45.640;11.756;2024-01-07T09:06:59;8.20;86.50
63017;DHT22;50274;45.640;11.756;2024-01-07T09:09:25;8.20;86.50
63017;DHT22;50274;45.640;11.756;2024-01-07T09:11:52;8.20;86.50
63017;DHT22;50274;45.640;11.756;2024-01-07T09:14:18;8.20;86.50
63017;DHT22;50274;45.640;11.756;2024-01-07T09:16:44;8.20;86.60
63017;DHT22;50274;45.640;11.756;2024-01-07T09:19:10;8.20;86.60
63017;DHT22;50274;45.640;11.756;2024-01-07T09:21:37;8.20;86.60
63017;DHT22;50274;45.640;11.756;2024-01-07T09:24:04;8.20;86.60
63017;DHT22;50274;45.640;11.756;2024-01-07T09:26:30;8.20;86.70
63017;DHT22;50274;45.640;11.756;2024-01-07T09:28:56;8.30;86.70
63017;DHT22;50274;45.640;11.756;2024-01-07T09:31:22;8.30;86.70
63017;DHT22;50274;45.640;11.756;2024-01-07T09:33:48;8.30;86.70
63017;DHT22;50274;45.640;11.756;2024-01-07T09:36:13;8.30;86.70
63017;DHT22;50274;45.640;11.756;2024-01-07T09:38:40;8.30;86.70
63017;DHT22;50274;45.640;11.756;2024-01-07T09:41:06;8.30;86.70
63017;DHT22;50274;45.640;11.756;2024-01-07T09:43:32;8.30;86.70
63017;DHT22;50274;45.640;11.756;2024-01-07T09:45:58;8.30;86.70
63017;DHT22;50274;45.640;11.756;2024-01-07T09:48:25;8.30;86.70
63017;DHT22;50274;45.640;11.756;2024-01-07T09:50:52;8.30;86.70
63017;DHT22;50274;45.640;11.756;2024-01-07T09:53:32;8.40;86.70
63017;DHT22;50274;45.640;11.756;2024-01-07T09:56:17;8.40;86.70
63017;DHT22;50274;45.640;11.756;2024-01-07T09:58:46;8.40;86.70
63017;DHT22;50274;45.640;11.756;2024-01-07T10:01:18;8.40;86.70
63017;DHT22;50274;45.640;11.756;2024-01-07T10:03:44;8.40;86.70
63017;DHT22;50274;45.640;11.756;2024-01-07T10:06:11;8.40;86.70
63017;DHT22;50274;45.640;11.756;2024-01-07T10:08:38;8.40;86.70
63017;DHT22;50274;45.640;11.756;2024-01-07T10:11:04;8.40;86.70
63017;DHT22;50274;45.640;11.756;2024-01-07T10:13:31;8.50;86.70
63017;DHT22;50274;45.640;11.756;2024-01-07T10:15:57;8.50;86.70
63017;DHT22;50274;45.640;11.756;2024-01-07T10:18:22;8.50;86.70
63017;DHT22;50274;45.640;11.756;2024-01-07T10:20:49;8.50;86.70
63017;DHT22;50274;45.640;11.756;2024-01-07T10:23:21;8.50;86.70
63017;DHT22;50274;45.640;11.756;2024-01-07T10:25:47;8.60;86.70
63017;DHT22;50274;45.640;11.756;2024-01-07T10:28:13;8.60;86.70
63017;DHT22;50274;45.640;11.756;2024-01-07T10:30:40;8.60;86.70
63017;DHT22;50274;45.640;11.756;2024-01-07T10:33:07;8.60;86.70
63017;DHT22;50274;45.640;11.756;2024-01-07T10:35:34;8.60;86.80
63017;DHT22;50274;45.640;11.756;2024-01-07T10:38:01;8.60;86.80
63017;DHT22;50274;45.640;11.756;2024-01-07T10:40:28;8.70;86.80
63017;DHT22;50274;45.640;11.756;2024-01-07T10:42:57;8.70;86.70
63017;DHT22;50274;45.640;11.756;2024-01-07T10:45:23;8.70;86.80
63017;DHT22;50274;45.640;11.756;2024-01-07T10:47:51;8.80;86.80
63017;DHT22;50274;45.640;11.756;2024-01-07T10:50:20;8.80;86.70
63017;DHT22;50274;45.640;11.756;2024-01-07T10:52:50;8.80;86.60
63017;DHT22;50274;45.640;11.756;2024-01-07T10:55:22;8.80;86.60
63017;DHT22;50274;45.640;11.756;2024-01-07T10:57:53;8.90;86.70
63017;DHT22;50274;45.640;11.756;2024-01-07T11:00:21;8.90;86.60
63017;DHT22;50274;45.640;11.756;2024-01-07T11:02:53;8.90;86.50
63017;DHT22;50274;45.640;11.756;2024-01-07T11:05:43;8.90;86.50
63017;DHT22;50274;45.640;11.756;2024-01-07T11:08:33;8.90;86.50
63017;DHT22;50274;45.640;11.756;2024-01-07T11:11:06;8.90;86.60
63017;DHT22;50274;45.640;11.756;2024-01-07T11:13:38;8.90;86.60
63017;DHT22;50274;45.640;11.756;2024-01-07T11:16:08;8.90;86.60
63017;DHT22;50274;45.640;11.756;2024-01-07T11:18:47;8.90;86.60
63017;DHT22;50274;45.640;11.756;2024-01-07T11:21:22;9.00;86.60
63017;DHT22;50274;45.640;11.756;2024-01-07T11:23:50;8.90;86.60
63017;DHT22;50274;45.640;11.756;2024-01-07T11:26:17;8.90;86.60
63017;DHT22;50274;45.640;11.756;2024-01-07T11:28:56;8.90;86.60
63017;DHT22;50274;45.640;11.756;2024-01-07T11:34:10;9.00;86.70
63017;DHT22;50274;45.640;11.756;2024-01-07T11:36:37;8.90;86.60
63017;DHT22;50274;45.640;11.756;2024-01-07T11:39:03;9.00;86.60
63017;DHT22;50274;45.640;11.756;2024-01-07T11:41:39;9.00;86.60
63017;DHT22;50274;45.640;11.756;2024-01-07T11:44:05;9.00;86.60
63017;DHT22;50274;45.640;11.756;2024-01-07T11:46:31;9.00;86.60
63017;DHT22;50274;45.640;11.756;2024-01-07T11:48:58;9.00;86.60
63017;DHT22;50274;45.640;11.756;2024-01-07T11:51:33;8.90;86.60
63017;DHT22;50274;45.640;11.756;2024-01-07T11:54:01;9.00;86.60
63017;DHT22;50274;45.640;11.756;2024-01-07T11:56:28;9.00;86.60
63017;DHT22;50274;45.640;11.756;2024-01-07T11:58:54;8.90;86.60
63017;DHT22;50274;45.640;11.756;2024-01-07T12:01:22;9.00;86.60
63017;DHT22;50274;45.640;11.756;2024-01-07T12:03:47;9.00;86.60
63017;DHT22;50274;45.640;11.756;2024-01-07T12:06:13;9.00;86.60
63017;DHT22;50274;45.640;11.756;2024-01-07T12:08:41;9.00;86.60
63017;DHT22;50274;45.640;11.756;2024-01-07T12:11:08;9.00;86.60
63017;DHT22;50274;45.640;11.756;2024-01-07T12:13:37;9.00;86.60
63017;DHT22;50274;45.640;11.756;2024-01-07T12:16:04;9.00;86.60
63017;DHT22;50274;45.640;11.756;2024-01-07T12:18:30;9.10;86.60
63017;DHT22;50274;45.640;11.756;2024-01-07T12:21:01;9.10;86.60
63017;DHT22;50274;45.640;11.756;2024-01-07T12:23:34;9.10;86.60
63017;DHT22;50274;45.640;11.756;2024-01-07T12:26:17;9.10;86.70
63017;DHT22;50274;45.640;11.756;2024-01-07T12:28:55;9.10;86.60
63017;DHT22;50274;45.640;11.756;2024-01-07T12:31:21;9.10;86.60
63017;DHT22;50274;45.640;11.756;2024-01-07T12:33:47;9.20;86.60
63017;DHT22;50274;45.640;11.756;2024-01-07T12:36:13;9.10;86.60
63017;DHT22;50274;45.640;11.756;2024-01-07T12:38:40;9.10;86.60
63017;DHT22;50274;45.640;11.756;2024-01-07T12:41:15;9.10;86.60
63017;DHT22;50274;45.640;11.756;2024-01-07T12:43:43;9.10;86.70
63017;DHT22;50274;45.640;11.756;2024-01-07T12:46:09;9.10;86.70
63017;DHT22;50274;45.640;11.756;2024-01-07T12:48:35;9.10;86.70
63017;DHT22;50274;45.640;11.756;2024-01-07T12:51:01;9.10;86.70
63017;DHT22;50274;45.640;11.756;2024-01-07T12:53:27;9.10;86.70
63017;DHT22;50274;45.640;11.756;2024-01-07T12:55:53;9.10;86.80
63017;DHT22;50274;45.640;11.756;2024-01-07T12:58:19;9.10;86.80
63017;DHT22;50274;45.640;11.756;2024-01-07T13:00:46;9.20;86.80
63017;DHT22;50274;45.640;11.756;2024-01-07T13:03:12;9.10;86.80
63017;DHT22;50274;45.640;11.756;2024-01-07T13:05:45;9.10;86.80
63017;DHT22;50274;45.640;11.756;2024-01-07T13:08:12;9.10;86.70
63017;DHT22;50274;45.640;11.756;2024-01-07T13:10:39;9.10;86.80
63017;DHT22;50274;45.640;11.756;2024-01-07T13:13:04;9.10;86.80
63017;DHT22;50274;45.640;11.756;2024-01-07T13:15:31;9.10;86.80
63017;DHT22;50274;45.640;11.756;2024-01-07T13:17:57;9.10;86.80
63017;DHT22;50274;45.640;11.756;2024-01-07T13:20:23;9.10;86.80
63017;DHT22;50274;45.640;11.756;2024-01-07T13:22:49;9.20;86.80
63017;DHT22;50274;45.640;11.756;2024-01-07T13:25:15;9.20;86.90
63017;DHT22;50274;45.640;11.756;2024-01-07T13:27:41;9.10;86.90
63017;DHT22;50274;45.640;11.756;2024-01-07T13:30:08;9.20;86.90
63017;DHT22;50274;45.640;11.756;2024-01-07T13:32:35;9.20;86.90
63017;DHT22;50274;45.640;11.756;2024-01-07T13:35:03;9.20;86.90
63017;DHT22;50274;45.640;11.756;2024-01-07T13:37:29;9.20;86.90
63017;DHT22;50274;45.640;11.756;2024-01-07T13:40:00;9.20;86.90
63017;DHT22;50274;45.640;11.756;2024-01-07T13:42:28;9.20;87.00
63017;DHT22;50274;45.640;11.756;2024-01-07T13:44:57;9.20;87.00
63017;DHT22;50274;45.640;11.756;2024-01-07T13:47:28;9.20;87.00
63017;DHT22;50274;45.640;11.756;2024-01-07T13:49:56;9.20;87.00
63017;DHT22;50274;45.640;11.756;2024-01-07T13:52:24;9.20;87.00
63017;DHT22;50274;45.640;11.756;2024-01-07T13:54:55;9.20;87.00
63017;DHT22;50274;45.640;11.756;2024-01-07T13:57:20;9.20;87.00
63017;DHT22;50274;45.640;11.756;2024-01-07T13:59:54;9.20;86.90
63017;DHT22;50274;45.640;11.756;2024-01-07T14:02:20;9.20;86.90
63017;DHT22;50274;45.640;11.756;2024-01-07T14:04:48;9.20;86.90
63017;DHT22;50274;45.640;11.756;2024-01-07T14:07:16;9.20;86.90
63017;DHT22;50274;45.640;11.756;2024-01-07T14:09:45;9.20;86.80
63017;DHT22;50274;45.640;11.756;2024-01-07T14:12:11;9.20;86.80
63017;DHT22;50274;45.640;11.756;2024-01-07T14:14:37;9.20;86.80
63017;DHT22;50274;45.640;11.756;2024-01-07T14:17:03;9.20;86.80
63017;DHT22;50274;45.640;11.756;2024-01-07T14:19:29;9.20;86.80
63017;DHT22;50274;45.640;11.756;2024-01-07T14:21:55;9.20;86.90
63017;DHT22;50274;45.640;11.756;2024-01-07T14:24:21;9.20;86.90
63017;DHT22;50274;45.640;11.756;2024-01-07T14:26:47;9.20;86.90
63017;DHT22;50274;45.640;11.756;2024-01-07T14:29:13;9.20;86.90
63017;DHT22;50274;45.640;11.756;2024-01-07T14:31:39;9.20;86.90
63017;DHT22;50274;45.640;11.756;2024-01-07T14:34:04;9.20;86.90
63017;DHT22;50274;45.640;11.756;2024-01-07T14:36:30;9.20;86.90
63017;DHT22;50274;45.640;11.756;2024-01-07T14:38:56;9.20;86.90
63017;DHT22;50274;45.640;11.756;2024-01-07T14:41:22;9.20;86.90
63017;DHT22;50274;45.640;11.756;2024-01-07T14:43:48;9.20;86.90
63017;DHT22;50274;45.640;11.756;2024-01-07T14:46:13;9.20;86.80
63017;DHT22;50274;45.640;11.756;2024-01-07T14:48:39;9.20;86.70
63017;DHT22;50274;45.640;11.756;2024-01-07T14:51:06;9.10;86.70
63017;DHT22;50274;45.640;11.756;2024-01-07T14:53:32;9.10;86.70
63017;DHT22;50274;45.640;11.756;2024-01-07T14:55:58;9.10;86.50
63017;DHT22;50274;45.640;11.756;2024-01-07T14:58:24;9.10;86.40
63017;DHT22;50274;45.640;11.756;2024-01-07T15:00:51;9.00;86.10
63017;DHT22;50274;45.640;11.756;2024-01-07T15:03:16;9.00;86.10
63017;DHT22;50274;45.640;11.756;2024-01-07T15:05:43;9.00;85.80
63017;DHT22;50274;45.640;11.756;2024-01-07T15:08:09;9.00;85.50
63017;DHT22;50274;45.640;11.756;2024-01-07T15:10:38;8.90;85.40
63017;DHT22;50274;45.640;11.756;2024-01-07T15:13:04;9.00;85.40
63017;DHT22;50274;45.640;11.756;2024-01-07T15:15:30;8.90;85.20
63017;DHT22;50274;45.640;11.756;2024-01-07T15:17:56;8.90;85.00
63017;DHT22;50274;45.640;11.756;2024-01-07T15:20:23;8.90;84.90
63017;DHT22;50274;45.640;11.756;2024-01-07T15:22:48;8.90;84.90
63017;DHT22;50274;45.640;11.756;2024-01-07T15:25:15;8.90;84.80
63017;DHT22;50274;45.640;11.756;2024-01-07T15:27:41;8.90;84.80
63017;DHT22;50274;45.640;11.756;2024-01-07T15:30:13;8.80;84.90